createdAt,value
2018-11-06T00:00:08.851Z,1
2018-11-06T00:01:08.834Z,1
2018-11-06T00:02:08.774Z,1
2018-11-06T00:03:08.819Z,1
2018-11-06T00:04:08.883Z,1
2018-11-06T00:05:08.779Z,1
2018-11-06T00:06:08.825Z,1
2018-11-06T00:07:08.789Z,1
2018-11-06T00:08:08.802Z,1
2018-11-06T00:09:08.785Z,1
2018-11-06T00:10:08.888Z,1
2018-11-06T00:11:08.773Z,1
2018-11-06T00:12:08.790Z,1
2018-11-06T00:13:08.776Z,1
2018-11-06T00:14:08.831Z,1
2018-11-06T00:15:08.830Z,1
2018-11-06T00:16:08.804Z,1
2018-11-06T00:17:08.772Z,1
2018-11-06T00:18:08.785Z,1
2018-11-06T00:19:08.775Z,1
2018-11-06T00:20:08.848Z,1
2018-11-06T00:21:08.835Z,1
2018-11-06T00:22:08.791Z,1
2018-11-06T00:23:08.816Z,1
2018-11-06T00:24:08.804Z,1
2018-11-06T00:25:08.870Z,1
2018-11-06T00:26:08.853Z,1
2018-11-06T00:27:08.825Z,1
2018-11-06T00:28:08.777Z,1
2018-11-06T00:29:08.792Z,1
2018-11-06T00:30:08.806Z,1
2018-11-06T00:31:08.774Z,1
2018-11-06T00:32:08.932Z,1
2018-11-06T00:33:08.775Z,1
2018-11-06T00:34:08.812Z,1
2018-11-06T00:35:08.813Z,1
2018-11-06T00:36:08.786Z,1
2018-11-06T00:37:08.828Z,1
2018-11-06T00:38:08.793Z,1
2018-11-06T00:39:08.792Z,1
2018-11-06T00:40:08.771Z,1
2018-11-06T00:41:08.781Z,1
2018-11-06T00:42:08.832Z,1
2018-11-06T00:43:08.773Z,1
2018-11-06T00:44:08.787Z,1
2018-11-06T00:45:08.795Z,1
2018-11-06T00:46:08.846Z,1
2018-11-06T00:47:08.844Z,1
2018-11-06T00:48:08.792Z,1
2018-11-06T00:49:08.831Z,1
2018-11-06T00:50:08.824Z,1
2018-11-06T00:51:08.774Z,1
2018-11-06T00:52:08.790Z,1
2018-11-06T00:53:08.770Z,1
2018-11-06T00:54:08.778Z,1
2018-11-06T00:55:08.845Z,1
2018-11-06T00:56:08.782Z,1
2018-11-06T00:57:08.848Z,1
2018-11-06T00:58:08.777Z,1
2018-11-06T00:59:09.469Z,1
2018-11-06T01:00:08.794Z,1
2018-11-06T01:01:08.783Z,1
2018-11-06T01:02:08.867Z,1
2018-11-06T01:03:08.802Z,1
2018-11-06T01:04:08.870Z,1
2018-11-06T01:05:08.829Z,1
2018-11-06T01:06:08.780Z,1
2018-11-06T01:07:09.117Z,1
2018-11-06T01:08:08.820Z,1
2018-11-06T01:09:08.797Z,1
2018-11-06T01:10:08.799Z,1
2018-11-06T01:11:08.864Z,1
2018-11-06T01:12:08.917Z,1
2018-11-06T01:13:08.812Z,1
2018-11-06T01:14:08.808Z,1
2018-11-06T01:15:08.853Z,1
2018-11-06T01:16:08.779Z,1
2018-11-06T01:17:08.858Z,1
2018-11-06T01:18:08.773Z,1
2018-11-06T01:19:08.843Z,1
2018-11-06T01:20:08.789Z,1
2018-11-06T01:21:08.773Z,1
2018-11-06T01:22:08.856Z,1
2018-11-06T01:23:08.871Z,1
2018-11-06T01:24:08.876Z,1
2018-11-06T01:25:08.788Z,1
2018-11-06T01:26:08.800Z,1
2018-11-06T01:27:08.831Z,1
2018-11-06T01:28:08.773Z,1
2018-11-06T01:29:08.793Z,1
2018-11-06T01:30:08.764Z,1
2018-11-06T01:31:08.764Z,1
2018-11-06T01:32:08.837Z,1
2018-11-06T01:33:08.770Z,1
2018-11-06T01:34:08.763Z,1
2018-11-06T01:35:08.773Z,1
2018-11-06T01:36:08.774Z,1
2018-11-06T01:37:08.853Z,1
2018-11-06T01:38:08.787Z,1
2018-11-06T01:39:08.781Z,1
2018-11-06T01:40:08.774Z,1
2018-11-06T01:41:08.773Z,1
2018-11-06T01:42:08.850Z,1
2018-11-06T01:43:08.782Z,1
2018-11-06T01:44:08.778Z,1
2018-11-06T01:45:08.972Z,1
2018-11-06T01:46:09.380Z,1
2018-11-06T01:47:09.077Z,1
2018-11-06T01:48:09.564Z,1
2018-11-06T01:49:09.013Z,1
2018-11-06T01:50:09.036Z,1
2018-11-06T01:51:08.950Z,1
2018-11-06T01:52:09.170Z,1
2018-11-06T01:53:08.862Z,1
2018-11-06T01:54:08.791Z,1
2018-11-06T01:55:08.784Z,1
2018-11-06T01:56:08.826Z,1
2018-11-06T01:57:08.851Z,1
2018-11-06T01:58:08.857Z,1
2018-11-06T01:59:08.782Z,1
2018-11-06T02:00:08.771Z,1
2018-11-06T02:01:08.774Z,1
2018-11-06T02:02:08.775Z,1
2018-11-06T02:03:08.849Z,1
2018-11-06T02:04:08.855Z,1
2018-11-06T02:05:08.788Z,1
2018-11-06T02:06:08.770Z,1
2018-11-06T02:07:08.770Z,1
2018-11-06T02:08:08.870Z,1
2018-11-06T02:09:08.845Z,1
2018-11-06T02:10:08.776Z,1
2018-11-06T02:11:08.849Z,1
2018-11-06T02:12:08.791Z,1
2018-11-06T02:13:08.840Z,1
2018-11-06T02:14:08.838Z,1
2018-11-06T02:15:08.769Z,1
2018-11-06T02:16:08.804Z,1
2018-11-06T02:17:08.781Z,1
2018-11-06T02:18:10.042Z,1
2018-11-06T02:19:08.823Z,1
2018-11-06T02:20:08.782Z,1
2018-11-06T02:21:08.777Z,1
2018-11-06T02:22:08.825Z,1
2018-11-06T02:23:08.834Z,1
2018-11-06T02:24:08.781Z,1
2018-11-06T02:25:08.775Z,1
2018-11-06T02:26:08.850Z,1
2018-11-06T02:27:08.811Z,1
2018-11-06T02:30:08.909Z,2
2018-11-06T02:33:08.789Z,1
2018-11-06T02:34:08.768Z,1
2018-11-06T02:35:08.857Z,1
2018-11-06T02:36:08.778Z,1
2018-11-06T02:37:08.795Z,1
2018-11-06T02:38:08.772Z,1
2018-11-06T02:39:08.787Z,1
2018-11-06T02:40:08.838Z,1
2018-11-06T02:41:08.835Z,1
2018-11-06T02:42:08.837Z,1
2018-11-06T02:43:08.785Z,1
2018-11-06T02:44:08.777Z,1
2018-11-06T02:45:08.914Z,1
2018-11-06T02:46:08.786Z,1
2018-11-06T02:47:08.843Z,1
2018-11-06T02:48:08.872Z,1
2018-11-06T02:49:08.781Z,1
2018-11-06T02:50:08.860Z,1
2018-11-06T02:51:08.777Z,1
2018-11-06T02:52:08.785Z,1
2018-11-06T02:53:08.782Z,1
2018-11-06T02:54:08.786Z,1
2018-11-06T02:55:08.861Z,1
2018-11-06T02:56:08.773Z,1
2018-11-06T02:57:08.772Z,1
2018-11-06T02:58:08.814Z,1
2018-11-06T02:59:08.797Z,1
2018-11-06T03:00:10.027Z,1
2018-11-06T03:01:09.027Z,1
2018-11-06T03:02:08.773Z,1
2018-11-06T03:03:08.783Z,1
2018-11-06T03:04:08.839Z,1
2018-11-06T03:05:08.808Z,1
2018-11-06T03:06:08.840Z,1
2018-11-06T03:07:08.771Z,1
2018-11-06T03:08:08.774Z,1
2018-11-06T03:09:08.793Z,1
2018-11-06T03:10:08.828Z,1
2018-11-06T03:11:08.858Z,1
2018-11-06T03:12:08.787Z,1
2018-11-06T03:13:08.783Z,1
2018-11-06T03:14:08.823Z,1
2018-11-06T03:15:08.773Z,1
2018-11-06T03:16:08.878Z,1
2018-11-06T03:17:08.772Z,1
2018-11-06T03:18:08.927Z,1
2018-11-06T03:19:08.791Z,1
2018-11-06T03:20:08.790Z,1
2018-11-06T03:21:08.779Z,1
2018-11-06T03:22:08.940Z,1
2018-11-06T03:23:08.855Z,1
2018-11-06T03:24:08.792Z,1
2018-11-06T03:25:08.833Z,1
2018-11-06T03:26:08.862Z,1
2018-11-06T03:27:09.017Z,1
2018-11-06T03:28:08.879Z,1
2018-11-06T03:29:08.803Z,1
2018-11-06T03:30:08.854Z,1
2018-11-06T03:31:08.788Z,1
2018-11-06T03:32:08.867Z,1
2018-11-06T03:33:08.772Z,1
2018-11-06T03:34:08.859Z,1
2018-11-06T03:35:08.836Z,1
2018-11-06T03:36:08.832Z,1
2018-11-06T03:37:08.997Z,1
2018-11-06T03:38:08.781Z,1
2018-11-06T03:39:08.793Z,1
2018-11-06T03:40:08.820Z,1
2018-11-06T03:41:08.860Z,1
2018-11-06T03:42:08.805Z,1
2018-11-06T03:43:08.769Z,1
2018-11-06T03:44:08.794Z,1
2018-11-06T03:45:08.810Z,1
2018-11-06T03:46:08.913Z,1
2018-11-06T03:47:08.797Z,1
2018-11-06T03:48:08.776Z,1
2018-11-06T03:49:08.793Z,1
2018-11-06T03:50:08.838Z,1
2018-11-06T03:51:08.785Z,1
2018-11-06T03:52:08.816Z,1
2018-11-06T03:53:08.869Z,1
2018-11-06T03:54:08.778Z,1
2018-11-06T03:55:08.877Z,1
2018-11-06T03:56:08.887Z,1
2018-11-06T03:57:08.802Z,1
2018-11-06T03:58:08.806Z,1
2018-11-06T03:59:08.765Z,1
2018-11-06T04:00:08.856Z,1
2018-11-06T04:01:08.802Z,1
2018-11-06T04:02:08.777Z,1
2018-11-06T04:03:08.790Z,1
2018-11-06T04:04:08.821Z,1
2018-11-06T04:05:08.940Z,1
2018-11-06T04:06:08.780Z,1
2018-11-06T04:07:08.846Z,1
2018-11-06T04:08:08.852Z,1
2018-11-06T04:09:08.830Z,1
2018-11-06T04:10:08.799Z,1
2018-11-06T04:11:08.783Z,1
2018-11-06T04:12:08.850Z,1
2018-11-06T04:13:08.819Z,1
2018-11-06T04:14:08.803Z,1
2018-11-06T04:15:08.868Z,1
2018-11-06T04:16:08.882Z,1
2018-11-06T04:17:08.838Z,1
2018-11-06T04:18:08.777Z,1
2018-11-06T04:19:08.832Z,1
2018-11-06T04:20:08.849Z,1
2018-11-06T04:21:08.776Z,1
2018-11-06T04:22:08.777Z,1
2018-11-06T04:23:08.809Z,1
2018-11-06T04:24:08.772Z,2
2018-11-06T04:25:08.828Z,1
2018-11-06T04:26:08.780Z,1
2018-11-06T04:27:08.866Z,1
2018-11-06T04:28:08.808Z,1
2018-11-06T04:29:08.839Z,1
2018-11-06T04:30:08.840Z,1
2018-11-06T04:31:08.769Z,1
2018-11-06T04:32:08.839Z,1
2018-11-06T04:33:08.779Z,1
2018-11-06T04:34:08.773Z,1
2018-11-06T04:35:08.859Z,1
2018-11-06T04:36:08.826Z,1
2018-11-06T04:37:08.791Z,1
2018-11-06T04:38:08.820Z,1
2018-11-06T04:39:08.776Z,1
2018-11-06T04:40:08.829Z,1
2018-11-06T04:41:08.807Z,1
2018-11-06T04:42:08.799Z,1
2018-11-06T04:43:08.779Z,1
2018-11-06T04:44:08.879Z,1
2018-11-06T04:45:08.867Z,1
2018-11-06T04:46:09.052Z,1
2018-11-06T04:47:08.839Z,1
2018-11-06T04:48:08.793Z,1
2018-11-06T04:49:08.826Z,1
2018-11-06T04:50:08.897Z,1
2018-11-06T04:51:08.792Z,1
2018-11-06T04:52:08.776Z,1
2018-11-06T04:53:08.835Z,1
2018-11-06T04:54:08.807Z,1
2018-11-06T04:55:08.971Z,1
2018-11-06T04:56:08.790Z,1
2018-11-06T04:57:08.773Z,1
2018-11-06T04:58:08.832Z,1
2018-11-06T04:59:08.791Z,1
2018-11-06T05:00:08.902Z,1
2018-11-06T05:01:08.789Z,1
2018-11-06T05:02:08.849Z,1
2018-11-06T05:03:08.825Z,1
2018-11-06T05:04:08.829Z,1
2018-11-06T05:05:08.906Z,1
2018-11-06T05:06:08.788Z,2
2018-11-06T05:07:08.799Z,1
2018-11-06T05:08:08.909Z,1
2018-11-06T05:09:08.776Z,1
2018-11-06T05:10:08.805Z,1
2018-11-06T05:11:08.775Z,1
2018-11-06T05:12:08.785Z,1
2018-11-06T05:13:08.843Z,1
2018-11-06T05:14:08.900Z,1
2018-11-06T05:15:08.830Z,1
2018-11-06T05:16:08.869Z,1
2018-11-06T05:17:08.787Z,1
2018-11-06T05:18:08.779Z,1
2018-11-06T05:19:08.814Z,1
2018-11-06T05:20:08.779Z,1
2018-11-06T05:21:08.878Z,1
2018-11-06T05:22:08.774Z,1
2018-11-06T05:23:08.784Z,1
2018-11-06T05:24:08.814Z,1
2018-11-06T05:25:08.856Z,1
2018-11-06T05:26:08.826Z,1
2018-11-06T05:27:08.819Z,2
2018-11-06T05:28:08.821Z,1
2018-11-06T05:29:08.780Z,2
2018-11-06T05:30:08.803Z,1
2018-11-06T05:31:08.848Z,1
2018-11-06T05:32:08.934Z,2
2018-11-06T05:33:08.779Z,1
2018-11-06T05:34:08.822Z,1
2018-11-06T05:35:08.816Z,1
2018-11-06T05:36:08.925Z,1
2018-11-06T05:37:08.834Z,1
2018-11-06T05:38:08.789Z,1
2018-11-06T05:39:08.863Z,1
2018-11-06T05:40:08.794Z,1
2018-11-06T05:41:08.892Z,1
2018-11-06T05:42:08.770Z,1
2018-11-06T05:43:08.779Z,1
2018-11-06T05:44:08.899Z,1
2018-11-06T05:45:08.915Z,1
2018-11-06T05:46:08.815Z,1
2018-11-06T05:47:08.772Z,1
2018-11-06T05:48:08.815Z,1
2018-11-06T05:49:08.787Z,1
2018-11-06T05:50:08.870Z,1
2018-11-06T05:51:08.782Z,1
2018-11-06T05:52:08.776Z,1
2018-11-06T05:53:08.813Z,1
2018-11-06T05:54:08.771Z,1
2018-11-06T05:55:08.832Z,1
2018-11-06T05:56:08.779Z,1
2018-11-06T05:57:08.781Z,1
2018-11-06T05:58:08.871Z,1
2018-11-06T05:59:08.795Z,1
2018-11-06T06:00:08.819Z,1
2018-11-06T06:01:08.787Z,1
2018-11-06T06:02:08.816Z,1
2018-11-06T06:03:08.848Z,1
2018-11-06T06:04:08.773Z,1
2018-11-06T06:05:08.780Z,1
2018-11-06T06:06:08.821Z,1
2018-11-06T06:07:08.822Z,1
2018-11-06T06:08:08.772Z,1
2018-11-06T06:09:08.776Z,1
2018-11-06T06:10:08.960Z,1
2018-11-06T06:11:08.946Z,1
2018-11-06T06:12:08.853Z,1
2018-11-06T06:13:08.876Z,1
2018-11-06T06:14:08.868Z,1
2018-11-06T06:15:08.773Z,1
2018-11-06T06:16:08.862Z,2
2018-11-06T06:17:08.947Z,1
2018-11-06T06:18:08.772Z,1
2018-11-06T06:19:08.881Z,1
2018-11-06T06:20:08.778Z,1
2018-11-06T06:21:08.862Z,1
2018-11-06T06:22:08.776Z,1
2018-11-06T06:23:08.770Z,2
2018-11-06T06:24:08.768Z,2
2018-11-06T06:25:08.848Z,2
2018-11-06T06:26:08.829Z,3
2018-11-06T06:27:08.801Z,2
2018-11-06T06:28:08.837Z,1
2018-11-06T06:29:08.790Z,1
2018-11-06T06:30:08.838Z,1
2018-11-06T06:31:08.818Z,1
2018-11-06T06:32:08.844Z,1
2018-11-06T06:33:08.870Z,3
2018-11-06T06:34:08.944Z,4
2018-11-06T06:35:08.877Z,2
2018-11-06T06:36:08.773Z,2
2018-11-06T06:37:08.962Z,2
2018-11-06T06:38:08.871Z,2
2018-11-06T06:39:08.850Z,2
2018-11-06T06:40:08.943Z,2
2018-11-06T06:41:08.797Z,1
2018-11-06T06:42:08.870Z,1
2018-11-06T06:43:08.816Z,1
2018-11-06T06:44:08.782Z,2
2018-11-06T06:45:08.771Z,2
2018-11-06T06:46:08.823Z,1
2018-11-06T06:47:08.775Z,1
2018-11-06T06:48:08.832Z,3
2018-11-06T06:49:08.797Z,3
2018-11-06T06:50:08.830Z,3
2018-11-06T06:51:08.781Z,3
2018-11-06T06:52:08.792Z,3
2018-11-06T06:53:08.873Z,3
2018-11-06T06:54:09.814Z,8
2018-11-06T06:55:08.972Z,6
2018-11-06T06:56:08.781Z,4
2018-11-06T06:57:08.917Z,3
2018-11-06T06:58:08.853Z,2
2018-11-06T06:59:08.848Z,2
2018-11-06T07:00:08.822Z,2
2018-11-06T07:01:08.777Z,3
2018-11-06T07:02:08.821Z,3
2018-11-06T07:03:09.117Z,5
2018-11-06T07:04:08.847Z,3
2018-11-06T07:05:08.787Z,3
2018-11-06T07:06:08.876Z,3
2018-11-06T07:07:08.777Z,2
2018-11-06T07:08:08.787Z,2
2018-11-06T07:09:08.916Z,3
2018-11-06T07:10:09.002Z,3
2018-11-06T07:11:08.777Z,2
2018-11-06T07:12:08.952Z,5
2018-11-06T07:13:08.932Z,5
2018-11-06T07:14:08.961Z,4
2018-11-06T07:15:08.777Z,4
2018-11-06T07:16:08.775Z,4
2018-11-06T07:17:08.805Z,3
2018-11-06T07:18:08.846Z,3
2018-11-06T07:19:08.787Z,3
2018-11-06T07:20:08.865Z,4
2018-11-06T07:21:08.816Z,4
2018-11-06T07:22:08.775Z,3
2018-11-06T07:23:08.825Z,3
2018-11-06T07:24:08.778Z,4
2018-11-06T07:25:08.815Z,3
2018-11-06T07:26:08.777Z,4
2018-11-06T07:27:08.781Z,4
2018-11-06T07:28:08.837Z,4
2018-11-06T07:29:08.798Z,4
2018-11-06T07:30:08.807Z,4
2018-11-06T07:31:08.784Z,4
2018-11-06T07:32:08.771Z,4
2018-11-06T07:33:08.876Z,4
2018-11-06T07:34:08.771Z,4
2018-11-06T07:35:08.916Z,5
2018-11-06T07:36:08.778Z,4
2018-11-06T07:37:08.791Z,4
2018-11-06T07:38:08.864Z,3
2018-11-06T07:39:08.817Z,3
2018-11-06T07:40:08.775Z,3
2018-11-06T07:41:08.940Z,3
2018-11-06T07:42:08.776Z,3
2018-11-06T07:43:08.855Z,3
2018-11-06T07:44:08.783Z,4
2018-11-06T07:45:08.779Z,4
2018-11-06T07:46:08.965Z,4
2018-11-06T07:47:08.833Z,4
2018-11-06T07:48:08.943Z,4
2018-11-06T07:49:08.778Z,4
2018-11-06T07:50:08.830Z,5
2018-11-06T07:51:08.774Z,4
2018-11-06T07:52:08.784Z,5
2018-11-06T07:53:08.828Z,5
2018-11-06T07:54:08.780Z,5
2018-11-06T07:55:08.817Z,5
2018-11-06T07:56:08.879Z,6
2018-11-06T07:57:08.852Z,5
2018-11-06T07:58:08.777Z,4
2018-11-06T07:59:08.773Z,4
2018-11-06T08:00:08.773Z,5
2018-11-06T08:01:08.811Z,5
2018-11-06T08:02:08.880Z,6
2018-11-06T08:03:09.674Z,7
2018-11-06T08:04:09.899Z,7
2018-11-06T08:05:08.842Z,6
2018-11-06T08:06:08.851Z,6
2018-11-06T08:07:09.270Z,6
2018-11-06T08:08:08.784Z,6
2018-11-06T08:09:08.861Z,6
2018-11-06T08:10:08.779Z,6
2018-11-06T08:11:08.806Z,6
2018-11-06T08:12:08.821Z,6
2018-11-06T08:13:08.773Z,6
2018-11-06T08:14:08.775Z,5
2018-11-06T08:15:08.987Z,5
2018-11-06T08:16:08.777Z,5
2018-11-06T08:17:08.779Z,5
2018-11-06T08:18:08.821Z,4
2018-11-06T08:19:08.815Z,4
2018-11-06T08:20:08.772Z,4
2018-11-06T08:21:08.779Z,4
2018-11-06T08:22:08.824Z,4
2018-11-06T08:23:08.774Z,4
2018-11-06T08:24:08.810Z,4
2018-11-06T08:25:08.792Z,4
2018-11-06T08:26:08.813Z,5
2018-11-06T08:27:08.835Z,4
2018-11-06T08:28:08.822Z,5
2018-11-06T08:29:09.775Z,4
2018-11-06T08:30:08.867Z,2
2018-11-06T08:31:09.019Z,2
2018-11-06T08:32:09.079Z,2
2018-11-06T08:33:08.781Z,2
2018-11-06T08:34:09.220Z,3
2018-11-06T08:35:08.851Z,3
2018-11-06T08:36:08.781Z,4
2018-11-06T08:37:08.896Z,3
2018-11-06T08:38:08.791Z,3
2018-11-06T08:39:08.781Z,3
2018-11-06T08:40:08.793Z,3
2018-11-06T08:41:08.811Z,3
2018-11-06T08:42:08.875Z,3
2018-11-06T08:43:08.841Z,3
2018-11-06T08:44:08.778Z,3
2018-11-06T08:45:11.134Z,3
2018-11-06T08:46:08.770Z,3
2018-11-06T08:49:08.816Z,7
2018-11-06T08:50:08.781Z,8
2018-11-06T08:51:08.852Z,7
2018-11-06T08:52:08.828Z,7
2018-11-06T08:53:08.810Z,7
2018-11-06T08:54:08.779Z,7
2018-11-06T08:55:08.819Z,7
2018-11-06T08:56:10.066Z,7
2018-11-06T08:57:08.803Z,7
2018-11-06T08:58:08.792Z,7
2018-11-06T08:59:08.981Z,7
2018-11-06T09:00:08.841Z,7
2018-11-06T09:01:08.820Z,7
2018-11-06T09:02:08.998Z,9
2018-11-06T09:03:08.793Z,9
2018-11-06T09:04:08.802Z,8
2018-11-06T09:05:08.776Z,8
2018-11-06T09:06:08.782Z,8
2018-11-06T09:07:08.873Z,8
2018-11-06T09:08:08.780Z,3
2018-11-06T09:09:08.768Z,2
2018-11-06T09:10:08.785Z,2
2018-11-06T09:11:08.786Z,2
2018-11-06T09:12:08.839Z,3
2018-11-06T09:13:08.772Z,3
2018-11-06T09:14:08.820Z,2
2018-11-06T09:15:08.806Z,2
2018-11-06T09:16:08.887Z,2
2018-11-06T09:17:08.903Z,2
2018-11-06T09:18:08.799Z,1
2018-11-06T09:19:08.792Z,3
2018-11-06T09:20:08.769Z,3
2018-11-06T09:21:08.804Z,1
2018-11-06T09:22:08.848Z,2
2018-11-06T09:23:08.776Z,1
2018-11-06T09:24:08.827Z,2
2018-11-06T09:25:09.492Z,3
2018-11-06T09:26:08.785Z,3
2018-11-06T09:27:08.803Z,3
2018-11-06T09:28:08.779Z,3
2018-11-06T09:29:08.801Z,3
2018-11-06T09:30:08.856Z,3
2018-11-06T09:31:08.940Z,3
2018-11-06T09:32:08.789Z,3
2018-11-06T09:33:08.781Z,3
2018-11-06T09:34:08.775Z,3
2018-11-06T09:35:08.895Z,2
2018-11-06T09:36:08.781Z,2
2018-11-06T09:37:08.774Z,2
2018-11-06T09:38:08.780Z,3
2018-11-06T09:39:08.798Z,3
2018-11-06T09:40:08.891Z,3
2018-11-06T09:41:08.880Z,2
2018-11-06T09:42:08.803Z,2
2018-11-06T09:43:08.802Z,2
2018-11-06T09:44:08.800Z,3
2018-11-06T09:45:08.893Z,2
2018-11-06T09:46:08.828Z,2
2018-11-06T09:47:08.789Z,3
2018-11-06T09:48:08.792Z,3
2018-11-06T09:49:08.824Z,3
2018-11-06T09:50:08.814Z,3
2018-11-06T09:51:08.970Z,3
2018-11-06T09:52:08.866Z,3
2018-11-06T09:53:08.789Z,3
2018-11-06T09:54:08.773Z,3
2018-11-06T09:55:08.818Z,3
2018-11-06T09:56:08.844Z,3
2018-11-06T09:57:09.009Z,3
2018-11-06T09:58:08.794Z,3
2018-11-06T09:59:08.796Z,3
2018-11-06T10:00:08.905Z,4
2018-11-06T10:01:08.778Z,3
2018-11-06T10:02:08.991Z,3
2018-11-06T10:03:08.786Z,3
2018-11-06T10:04:08.838Z,3
2018-11-06T10:05:08.799Z,3
2018-11-06T10:06:08.861Z,3
2018-11-06T10:07:09.189Z,3
2018-11-06T10:08:08.778Z,3
2018-11-06T10:09:08.886Z,3
2018-11-06T10:10:08.781Z,3
2018-11-06T10:11:08.788Z,3
2018-11-06T10:12:08.788Z,2
2018-11-06T10:13:08.776Z,2
2018-11-06T10:14:08.812Z,3
2018-11-06T10:15:08.825Z,3
2018-11-06T10:16:08.787Z,2
2018-11-06T10:17:08.856Z,2
2018-11-06T10:18:08.783Z,2
2018-11-06T10:19:08.819Z,2
2018-11-06T10:20:08.776Z,2
2018-11-06T10:21:08.810Z,2
2018-11-06T10:22:08.889Z,2
2018-11-06T10:23:08.779Z,2
2018-11-06T10:24:08.781Z,2
2018-11-06T10:25:08.794Z,2
2018-11-06T10:26:08.803Z,2
2018-11-06T10:27:08.832Z,2
2018-11-06T10:28:08.820Z,3
2018-11-06T10:29:08.837Z,3
2018-11-06T10:30:08.783Z,3
2018-11-06T10:31:08.771Z,2
2018-11-06T10:32:08.845Z,3
2018-11-06T10:33:09.185Z,3
2018-11-06T10:34:08.802Z,2
2018-11-06T10:35:08.838Z,2
2018-11-06T10:36:08.782Z,2
2018-11-06T10:37:08.878Z,2
2018-11-06T10:38:08.817Z,2
2018-11-06T10:39:08.821Z,2
2018-11-06T10:40:08.858Z,3
2018-11-06T10:41:08.837Z,3
2018-11-06T10:42:08.910Z,3
2018-11-06T10:43:08.778Z,3
2018-11-06T10:44:08.781Z,3
2018-11-06T10:45:08.797Z,3
2018-11-06T10:46:08.783Z,3
2018-11-06T10:47:08.881Z,3
2018-11-06T10:48:08.770Z,3
2018-11-06T10:49:08.797Z,3
2018-11-06T10:50:08.827Z,3
2018-11-06T10:51:08.784Z,3
2018-11-06T10:52:08.863Z,3
2018-11-06T10:53:08.774Z,3
2018-11-06T10:54:08.802Z,3
2018-11-06T10:55:08.776Z,3
2018-11-06T10:56:08.788Z,3
2018-11-06T10:57:08.852Z,3
2018-11-06T10:58:08.848Z,3
2018-11-06T10:59:08.780Z,3
2018-11-06T11:00:08.793Z,3
2018-11-06T11:01:08.786Z,3
2018-11-06T11:02:08.847Z,3
2018-11-06T11:03:08.810Z,3
2018-11-06T11:04:08.894Z,3
2018-11-06T11:05:08.777Z,3
2018-11-06T11:06:08.770Z,3
2018-11-06T11:07:08.946Z,4
2018-11-06T11:08:08.798Z,3
2018-11-06T11:09:08.778Z,2
2018-11-06T11:10:08.782Z,3
2018-11-06T11:11:08.772Z,4
2018-11-06T11:12:10.026Z,4
2018-11-06T11:13:08.788Z,4
2018-11-06T11:14:08.810Z,4
2018-11-06T11:15:08.784Z,3
2018-11-06T11:16:08.767Z,3
2018-11-06T11:17:08.855Z,3
2018-11-06T11:18:10.088Z,3
2018-11-06T11:19:08.792Z,4
2018-11-06T11:20:08.803Z,4
2018-11-06T11:21:08.841Z,4
2018-11-06T11:22:08.825Z,3
2018-11-06T11:23:08.819Z,3
2018-11-06T11:24:08.852Z,3
2018-11-06T11:25:08.799Z,3
2018-11-06T11:26:08.784Z,3
2018-11-06T11:27:08.889Z,4
2018-11-06T11:28:08.834Z,5
2018-11-06T11:29:10.070Z,5
2018-11-06T11:30:08.796Z,5
2018-11-06T11:31:08.817Z,3
2018-11-06T11:32:08.775Z,5
2018-11-06T11:33:08.778Z,6
2018-11-06T11:34:08.801Z,5
2018-11-06T11:35:08.916Z,4
2018-11-06T11:36:08.860Z,4
2018-11-06T11:37:08.925Z,5
2018-11-06T11:38:08.851Z,3
2018-11-06T11:39:08.818Z,2
2018-11-06T11:40:08.816Z,3
2018-11-06T11:41:08.823Z,2
2018-11-06T11:42:08.803Z,2
2018-11-06T11:43:09.005Z,3
2018-11-06T11:44:09.244Z,2
2018-11-06T11:45:08.796Z,3
2018-11-06T11:46:08.789Z,3
2018-11-06T11:47:08.769Z,3
2018-11-06T11:48:08.883Z,3
2018-11-06T11:49:09.351Z,3
2018-11-06T11:50:08.850Z,3
2018-11-06T11:51:08.835Z,3
2018-11-06T11:52:08.824Z,3
2018-11-06T11:53:08.803Z,3
2018-11-06T11:54:08.995Z,2
2018-11-06T11:55:09.347Z,5
2018-11-06T11:56:20.137Z,7
2018-11-06T11:57:10.514Z,8
2018-11-06T11:58:13.221Z,7
2018-11-06T11:59:11.887Z,7
2018-11-06T12:00:09.485Z,8
2018-11-06T12:01:10.339Z,9
2018-11-06T12:02:10.504Z,9
2018-11-06T12:03:18.611Z,8
2018-11-06T12:04:13.532Z,8
2018-11-06T12:05:09.747Z,9
2018-11-06T12:06:08.792Z,4
2018-11-06T12:07:08.776Z,2
2018-11-06T12:08:08.857Z,1
2018-11-06T12:09:08.767Z,2
2018-11-06T12:10:08.770Z,2
2018-11-06T12:11:08.756Z,2
2018-11-06T12:12:08.762Z,1
2018-11-06T12:13:08.822Z,2
2018-11-06T12:14:08.758Z,1
2018-11-06T12:15:08.757Z,1
2018-11-06T12:16:08.759Z,1
2018-11-06T12:17:08.787Z,1
2018-11-06T12:18:08.829Z,2
2018-11-06T12:19:08.760Z,2
2018-11-06T12:20:08.769Z,2
2018-11-06T12:21:08.765Z,2
2018-11-06T12:22:08.796Z,2
2018-11-06T12:23:08.759Z,2
2018-11-06T12:24:08.941Z,2
2018-11-06T12:25:09.087Z,4
2018-11-06T12:26:08.836Z,4
2018-11-06T12:27:08.785Z,4
2018-11-06T12:28:08.786Z,4
2018-11-06T12:29:08.772Z,4
2018-11-06T12:30:08.832Z,5
2018-11-06T12:31:08.778Z,5
2018-11-06T12:32:08.791Z,4
2018-11-06T12:33:08.808Z,4
2018-11-06T12:34:08.807Z,4
2018-11-06T12:35:08.844Z,4
2018-11-06T12:36:08.785Z,4
2018-11-06T12:37:08.970Z,4
2018-11-06T12:38:08.777Z,4
2018-11-06T12:39:08.772Z,4
2018-11-06T12:40:08.881Z,4
2018-11-06T12:41:08.774Z,4
2018-11-06T12:42:08.793Z,4
2018-11-06T12:43:08.904Z,4
2018-11-06T12:44:08.775Z,4
2018-11-06T12:45:08.829Z,4
2018-11-06T12:46:08.775Z,4
2018-11-06T12:47:08.777Z,3
2018-11-06T12:48:08.786Z,3
2018-11-06T12:49:08.779Z,3
2018-11-06T12:50:08.911Z,3
2018-11-06T12:51:08.772Z,3
2018-11-06T12:52:08.863Z,4
2018-11-06T12:53:08.820Z,3
2018-11-06T12:54:08.845Z,3
2018-11-06T12:55:08.835Z,3
2018-11-06T12:56:08.846Z,3
2018-11-06T12:57:08.794Z,4
2018-11-06T12:58:08.837Z,5
2018-11-06T12:59:08.805Z,4
2018-11-06T13:00:08.771Z,5
2018-11-06T13:01:08.799Z,6
2018-11-06T13:02:08.781Z,5
2018-11-06T13:03:08.858Z,4
2018-11-06T13:04:08.775Z,4
2018-11-06T13:05:08.782Z,4
2018-11-06T13:06:08.841Z,4
2018-11-06T13:07:08.781Z,3
2018-11-06T13:08:08.828Z,4
2018-11-06T13:09:08.750Z,4
2018-11-06T13:10:08.737Z,4
2018-11-06T13:11:08.690Z,4
2018-11-06T13:12:08.677Z,4
2018-11-06T13:13:08.675Z,4
2018-11-06T13:14:09.152Z,4
2018-11-06T13:15:08.576Z,4
2018-11-06T13:16:08.608Z,4
2018-11-06T13:17:08.630Z,5
2018-11-06T13:18:08.557Z,4
2018-11-06T13:19:08.458Z,4
2018-11-06T13:20:08.461Z,4
2018-11-06T13:21:09.295Z,6
2018-11-06T13:22:08.408Z,5
2018-11-06T13:23:08.394Z,5
2018-11-06T13:24:08.396Z,5
2018-11-06T13:25:08.396Z,5
2018-11-06T13:26:08.603Z,5
2018-11-06T13:27:08.480Z,5
2018-11-06T13:28:08.794Z,5
2018-11-06T13:29:08.639Z,6
2018-11-06T13:30:08.635Z,6
2018-11-06T13:31:08.671Z,5
2018-11-06T13:32:08.638Z,5
2018-11-06T13:33:08.739Z,4
2018-11-06T13:34:08.660Z,4
2018-11-06T13:35:08.740Z,4
2018-11-06T13:36:08.799Z,4
2018-11-06T13:37:08.754Z,4
2018-11-06T13:38:08.778Z,4
2018-11-06T13:39:08.823Z,4
2018-11-06T13:40:08.777Z,4
2018-11-06T13:41:08.836Z,4
2018-11-06T13:42:09.041Z,4
2018-11-06T13:43:08.852Z,4
2018-11-06T13:44:09.116Z,4
2018-11-06T13:45:09.064Z,4
2018-11-06T13:46:08.791Z,4
2018-11-06T13:47:08.813Z,4
2018-11-06T13:48:08.780Z,4
2018-11-06T13:49:08.775Z,4
2018-11-06T13:50:08.792Z,4
2018-11-06T13:51:09.016Z,5
2018-11-06T13:52:08.928Z,4
2018-11-06T13:53:08.780Z,4
2018-11-06T13:54:08.780Z,4
2018-11-06T13:55:08.774Z,4
2018-11-06T13:56:08.809Z,4
2018-11-06T13:57:08.843Z,4
2018-11-06T13:58:08.790Z,4
2018-11-06T13:59:08.814Z,4
2018-11-06T14:00:08.797Z,3
2018-11-06T14:01:08.809Z,3
2018-11-06T14:02:08.877Z,3
2018-11-06T14:03:09.016Z,3
2018-11-06T14:04:08.840Z,3
2018-11-06T14:05:09.162Z,3
2018-11-06T14:06:08.786Z,3
2018-11-06T14:07:10.423Z,4
2018-11-06T14:08:09.150Z,3
2018-11-06T14:09:09.340Z,5
2018-11-06T14:10:15.048Z,4
2018-11-06T14:11:09.043Z,4
2018-11-06T14:12:08.859Z,4
2018-11-06T14:13:08.796Z,4
2018-11-06T14:14:09.014Z,3
2018-11-06T14:15:09.034Z,6
2018-11-06T14:16:08.855Z,5
2018-11-06T14:17:08.869Z,4
2018-11-06T14:18:08.774Z,3
2018-11-06T14:19:08.776Z,3
2018-11-06T14:20:08.854Z,3
2018-11-06T14:21:08.921Z,3
2018-11-06T14:22:08.829Z,3
2018-11-06T14:23:08.799Z,3
2018-11-06T14:24:08.787Z,3
2018-11-06T14:25:08.775Z,3
2018-11-06T14:26:08.801Z,5
2018-11-06T14:27:09.000Z,3
2018-11-06T14:28:08.925Z,4
2018-11-06T14:29:08.822Z,3
2018-11-06T14:30:08.780Z,3
2018-11-06T14:31:08.805Z,3
2018-11-06T14:32:08.927Z,3
2018-11-06T14:33:08.777Z,3
2018-11-06T14:34:08.919Z,3
2018-11-06T14:35:08.781Z,4
2018-11-06T14:36:08.860Z,3
2018-11-06T14:37:08.831Z,3
2018-11-06T14:38:08.787Z,3
2018-11-06T14:39:08.901Z,4
2018-11-06T14:40:08.771Z,5
2018-11-06T14:41:11.946Z,5
2018-11-06T14:42:09.008Z,4
2018-11-06T14:43:10.483Z,6
2018-11-06T14:44:16.505Z,5
2018-11-06T14:45:10.948Z,5
2018-11-06T14:46:09.467Z,8
2018-11-06T14:47:09.161Z,8
2018-11-06T14:48:09.739Z,9
2018-11-06T14:49:09.057Z,9
2018-11-06T14:50:09.509Z,8
2018-11-06T14:51:08.813Z,4
2018-11-06T14:52:08.776Z,1
2018-11-06T14:53:08.772Z,1